sensor_id;sensor_type;location;lat;lon;timestamp;P1;durP1;ratioP1;P2;durP2;ratioP2
32946;SDS011;54465;51.230;22.504;2023-09-18T00:04:52;6.80;;;6.10;;
32946;SDS011;54465;51.230;22.504;2023-09-18T00:09:52;11.65;;;5.72;;
32946;SDS011;54465;51.230;22.504;2023-09-18T00:14:53;6.20;;;5.40;;
32946;SDS011;54465;51.230;22.504;2023-09-18T00:19:53;7.13;;;6.25;;
32946;SDS011;54465;51.230;22.504;2023-09-18T00:24:54;6.60;;;6.00;;
32946;SDS011;54465;51.230;22.504;2023-09-18T00:29:55;6.25;;;5.65;;
32946;SDS011;54465;51.230;22.504;2023-09-18T00:34:55;8.93;;;6.20;;
32946;SDS011;54465;51.230;22.504;2023-09-18T00:39:56;7.05;;;6.35;;
32946;SDS011;54465;51.230;22.504;2023-09-18T00:44:57;6.68;;;6.00;;
32946;SDS011;54465;51.230;22.504;2023-09-18T00:49:57;7.30;;;5.63;;
32946;SDS011;54465;51.230;22.504;2023-09-18T00:54:58;6.15;;;5.55;;
32946;SDS011;54465;51.230;22.504;2023-09-18T01:00:01;7.47;;;5.90;;
32946;SDS011;54465;51.230;22.504;2023-09-18T01:05:03;8.20;;;6.55;;
32946;SDS011;54465;51.230;22.504;2023-09-18T01:10:04;7.03;;;6.32;;
32946;SDS011;54465;51.230;22.504;2023-09-18T01:20:35;7.03;;;6.07;;
32946;SDS011;54465;51.230;22.504;2023-09-18T01:25:36;6.72;;;5.68;;
32946;SDS011;54465;51.230;22.504;2023-09-18T01:30:36;7.80;;;6.80;;
32946;SDS011;54465;51.230;22.504;2023-09-18T01:35:38;6.35;;;5.70;;
32946;SDS011;54465;51.230;22.504;2023-09-18T01:40:40;7.53;;;6.68;;
32946;SDS011;54465;51.230;22.504;2023-09-18T01:45:40;7.13;;;6.45;;
32946;SDS011;54465;51.230;22.504;2023-09-18T01:50:42;8.68;;;6.70;;
32946;SDS011;54465;51.230;22.504;2023-09-18T01:55:42;6.63;;;5.78;;
32946;SDS011;54465;51.230;22.504;2023-09-18T02:00:44;6.90;;;6.20;;
32946;SDS011;54465;51.230;22.504;2023-09-18T02:05:44;8.75;;;6.35;;
32946;SDS011;54465;51.230;22.504;2023-09-18T02:10:45;9.40;;;6.47;;
32946;SDS011;54465;51.230;22.504;2023-09-18T02:15:45;7.13;;;5.88;;
32946;SDS011;54465;51.230;22.504;2023-09-18T02:20:46;7.32;;;6.40;;
32946;SDS011;54465;51.230;22.504;2023-09-18T02:25:55;7.60;;;6.57;;
32946;SDS011;54465;51.230;22.504;2023-09-18T02:30:56;6.38;;;5.78;;
32946;SDS011;54465;51.230;22.504;2023-09-18T02:35:56;7.25;;;5.97;;
32946;SDS011;54465;51.230;22.504;2023-09-18T02:40:57;8.25;;;6.50;;
32946;SDS011;54465;51.230;22.504;2023-09-18T02:45:58;8.30;;;6.38;;
32946;SDS011;54465;51.230;22.504;2023-09-18T02:50:59;6.65;;;5.95;;
32946;SDS011;54465;51.230;22.504;2023-09-18T02:56:00;7.78;;;5.75;;
32946;SDS011;54465;51.230;22.504;2023-09-18T03:01:01;8.45;;;6.20;;
32946;SDS011;54465;51.230;22.504;2023-09-18T03:06:04;6.65;;;5.55;;
32946;SDS011;54465;51.230;22.504;2023-09-18T03:11:14;7.30;;;6.28;;
32946;SDS011;54465;51.230;22.504;2023-09-18T03:16:17;8.30;;;6.20;;
32946;SDS011;54465;51.230;22.504;2023-09-18T03:21:18;6.55;;;5.75;;
32946;SDS011;54465;51.230;22.504;2023-09-18T03:26:19;8.98;;;6.15;;
32946;SDS011;54465;51.230;22.504;2023-09-18T03:31:20;7.00;;;5.88;;
32946;SDS011;54465;51.230;22.504;2023-09-18T03:36:21;6.78;;;5.82;;
32946;SDS011;54465;51.230;22.504;2023-09-18T03:41:23;6.63;;;5.90;;
32946;SDS011;54465;51.230;22.504;2023-09-18T03:46:24;8.40;;;6.70;;
32946;SDS011;54465;51.230;22.504;2023-09-18T03:51:25;6.88;;;5.97;;
32946;SDS011;54465;51.230;22.504;2023-09-18T03:56:25;7.60;;;6.30;;
32946;SDS011;54465;51.230;22.504;2023-09-18T04:01:26;7.57;;;6.13;;
32946;SDS011;54465;51.230;22.504;2023-09-18T04:06:32;8.35;;;5.80;;
32946;SDS011;54465;51.230;22.504;2023-09-18T04:11:36;6.68;;;6.07;;
32946;SDS011;54465;51.230;22.504;2023-09-18T04:16:36;7.72;;;6.93;;
32946;SDS011;54465;51.230;22.504;2023-09-18T04:21:41;7.00;;;6.28;;
32946;SDS011;54465;51.230;22.504;2023-09-18T04:26:42;7.57;;;5.70;;
32946;SDS011;54465;51.230;22.504;2023-09-18T04:31:42;7.32;;;6.07;;
32946;SDS011;54465;51.230;22.504;2023-09-18T04:36:43;7.72;;;6.05;;
32946;SDS011;54465;51.230;22.504;2023-09-18T04:41:45;6.93;;;5.72;;
32946;SDS011;54465;51.230;22.504;2023-09-18T04:46:45;7.97;;;5.97;;
32946;SDS011;54465;51.230;22.504;2023-09-18T04:51:46;11.43;;;6.97;;
32946;SDS011;54465;51.230;22.504;2023-09-18T04:56:47;7.82;;;6.40;;
32946;SDS011;54465;51.230;22.504;2023-09-18T05:01:47;6.68;;;6.00;;
32946;SDS011;54465;51.230;22.504;2023-09-18T05:06:48;8.18;;;7.10;;
32946;SDS011;54465;51.230;22.504;2023-09-18T05:11:48;6.78;;;6.07;;
32946;SDS011;54465;51.230;22.504;2023-09-18T05:16:49;6.97;;;5.97;;
32946;SDS011;54465;51.230;22.504;2023-09-18T05:21:49;7.30;;;6.05;;
32946;SDS011;54465;51.230;22.504;2023-09-18T05:26:50;9.98;;;6.20;;
32946;SDS011;54465;51.230;22.504;2023-09-18T05:31:53;8.20;;;6.60;;
32946;SDS011;54465;51.230;22.504;2023-09-18T05:36:53;8.68;;;6.30;;
32946;SDS011;54465;51.230;22.504;2023-09-18T05:41:53;8.93;;;6.80;;
32946;SDS011;54465;51.230;22.504;2023-09-18T05:46:54;7.68;;;5.93;;
32946;SDS011;54465;51.230;22.504;2023-09-18T05:51:54;7.65;;;6.60;;
32946;SDS011;54465;51.230;22.504;2023-09-18T05:56:55;8.57;;;6.90;;
32946;SDS011;54465;51.230;22.504;2023-09-18T06:01:55;8.23;;;6.70;;
32946;SDS011;54465;51.230;22.504;2023-09-18T06:06:56;9.18;;;6.88;;
32946;SDS011;54465;51.230;22.504;2023-09-18T06:11:57;8.32;;;7.15;;
32946;SDS011;54465;51.230;22.504;2023-09-18T06:16:59;8.75;;;6.32;;
32946;SDS011;54465;51.230;22.504;2023-09-18T06:22:00;9.13;;;7.07;;
32946;SDS011;54465;51.230;22.504;2023-09-18T06:27:00;10.93;;;6.82;;
32946;SDS011;54465;51.230;22.504;2023-09-18T06:32:01;7.55;;;6.85;;
32946;SDS011;54465;51.230;22.504;2023-09-18T06:37:02;6.47;;;5.78;;
32946;SDS011;54465;51.230;22.504;2023-09-18T06:42:04;9.50;;;6.72;;
32946;SDS011;54465;51.230;22.504;2023-09-18T06:47:05;8.90;;;6.68;;
32946;SDS011;54465;51.230;22.504;2023-09-18T06:52:05;8.10;;;7.03;;
32946;SDS011;54465;51.230;22.504;2023-09-18T06:57:06;8.20;;;6.25;;
32946;SDS011;54465;51.230;22.504;2023-09-18T07:02:08;7.47;;;6.25;;
32946;SDS011;54465;51.230;22.504;2023-09-18T07:07:08;7.70;;;6.95;;
32946;SDS011;54465;51.230;22.504;2023-09-18T07:12:09;8.85;;;6.75;;
32946;SDS011;54465;51.230;22.504;2023-09-18T07:17:09;9.25;;;6.60;;
32946;SDS011;54465;51.230;22.504;2023-09-18T07:22:10;8.50;;;7.00;;
32946;SDS011;54465;51.230;22.504;2023-09-18T07:27:10;8.63;;;6.80;;
32946;SDS011;54465;51.230;22.504;2023-09-18T07:32:11;9.40;;;7.72;;
32946;SDS011;54465;51.230;22.504;2023-09-18T07:37:11;9.00;;;7.38;;
32946;SDS011;54465;51.230;22.504;2023-09-18T07:42:12;9.35;;;7.57;;
32946;SDS011;54465;51.230;22.504;2023-09-18T07:47:12;8.63;;;7.15;;
32946;SDS011;54465;51.230;22.504;2023-09-18T07:52:13;9.57;;;7.07;;
32946;SDS011;54465;51.230;22.504;2023-09-18T07:57:13;8.73;;;7.05;;
32946;SDS011;54465;51.230;22.504;2023-09-18T08:02:14;7.70;;;6.82;;
32946;SDS011;54465;51.230;22.504;2023-09-18T08:07:15;7.38;;;6.68;;
32946;SDS011;54465;51.230;22.504;2023-09-18T08:12:16;7.75;;;6.68;;
32946;SDS011;54465;51.230;22.504;2023-09-18T08:17:16;7.50;;;6.80;;
32946;SDS011;54465;51.230;22.504;2023-09-18T08:22:17;7.25;;;6.60;;
32946;SDS011;54465;51.230;22.504;2023-09-18T08:27:19;6.90;;;6.20;;
32946;SDS011;54465;51.230;22.504;2023-09-18T08:32:19;6.97;;;6.20;;
32946;SDS011;54465;51.230;22.504;2023-09-18T08:37:20;6.47;;;5.85;;
32946;SDS011;54465;51.230;22.504;2023-09-18T08:42:20;7.50;;;6.63;;
32946;SDS011;54465;51.230;22.504;2023-09-18T08:47:21;7.72;;;6.88;;
32946;SDS011;54465;51.230;22.504;2023-09-18T08:52:22;7.22;;;6.45;;
32946;SDS011;54465;51.230;22.504;2023-09-18T08:57:23;6.72;;;6.00;;
32946;SDS011;54465;51.230;22.504;2023-09-18T09:02:24;7.40;;;6.70;;
32946;SDS011;54465;51.230;22.504;2023-09-18T09:07:25;8.10;;;7.32;;
32946;SDS011;54465;51.230;22.504;2023-09-18T09:17:50;8.55;;;6.82;;
32946;SDS011;54465;51.230;22.504;2023-09-18T09:22:51;9.38;;;6.45;;
32946;SDS011;54465;51.230;22.504;2023-09-18T09:27:56;7.35;;;5.95;;
32946;SDS011;54465;51.230;22.504;2023-09-18T09:32:58;9.07;;;6.15;;
32946;SDS011;54465;51.230;22.504;2023-09-18T09:37:59;6.57;;;5.60;;
32946;SDS011;54465;51.230;22.504;2023-09-18T09:43:01;7.45;;;6.15;;
32946;SDS011;54465;51.230;22.504;2023-09-18T09:48:03;7.65;;;5.68;;
32946;SDS011;54465;51.230;22.504;2023-09-18T09:53:05;6.57;;;5.88;;
32946;SDS011;54465;51.230;22.504;2023-09-18T09:58:06;6.25;;;5.63;;
32946;SDS011;54465;51.230;22.504;2023-09-18T10:03:08;6.55;;;5.93;;
32946;SDS011;54465;51.230;22.504;2023-09-18T10:08:17;6.07;;;4.87;;
32946;SDS011;54465;51.230;22.504;2023-09-18T10:13:27;5.18;;;4.68;;
32946;SDS011;54465;51.230;22.504;2023-09-18T10:18:39;6.25;;;5.03;;
32946;SDS011;54465;51.230;22.504;2023-09-18T10:23:48;7.13;;;5.45;;
32946;SDS011;54465;51.230;22.504;2023-09-18T10:29:09;5.82;;;5.22;;
32946;SDS011;54465;51.230;22.504;2023-09-18T10:34:13;5.72;;;5.22;;
32946;SDS011;54465;51.230;22.504;2023-09-18T10:39:14;6.95;;;5.28;;
32946;SDS011;54465;51.230;22.504;2023-09-18T10:44:19;7.95;;;5.63;;
32946;SDS011;54465;51.230;22.504;2023-09-18T10:49:20;6.32;;;5.72;;
32946;SDS011;54465;51.230;22.504;2023-09-18T10:54:22;8.05;;;5.18;;
32946;SDS011;54465;51.230;22.504;2023-09-18T10:59:24;6.35;;;5.47;;
32946;SDS011;54465;51.230;22.504;2023-09-18T11:04:24;8.25;;;5.68;;
32946;SDS011;54465;51.230;22.504;2023-09-18T11:09:25;6.60;;;5.40;;
32946;SDS011;54465;51.230;22.504;2023-09-18T11:19:45;6.10;;;5.50;;
32946;SDS011;54465;51.230;22.504;2023-09-18T11:24:46;5.47;;;4.97;;
32946;SDS011;54465;51.230;22.504;2023-09-18T11:29:50;7.03;;;5.18;;
32946;SDS011;54465;51.230;22.504;2023-09-18T11:34:54;7.75;;;5.15;;
32946;SDS011;54465;51.230;22.504;2023-09-18T11:40:09;5.93;;;4.90;;
32946;SDS011;54465;51.230;22.504;2023-09-18T11:45:28;5.18;;;4.47;;
32946;SDS011;54465;51.230;22.504;2023-09-18T11:50:29;5.20;;;4.70;;
32946;SDS011;54465;51.230;22.504;2023-09-18T11:55:31;5.57;;;4.40;;
32946;SDS011;54465;51.230;22.504;2023-09-18T12:00:32;5.43;;;4.93;;
32946;SDS011;54465;51.230;22.504;2023-09-18T12:05:33;5.63;;;5.13;;
32946;SDS011;54465;51.230;22.504;2023-09-18T12:10:35;5.20;;;4.70;;
32946;SDS011;54465;51.230;22.504;2023-09-18T12:15:35;5.18;;;4.68;;
32946;SDS011;54465;51.230;22.504;2023-09-18T12:20:37;5.50;;;4.45;;
32946;SDS011;54465;51.230;22.504;2023-09-18T12:25:38;5.00;;;4.57;;
32946;SDS011;54465;51.230;22.504;2023-09-18T12:30:39;5.18;;;4.60;;
32946;SDS011;54465;51.230;22.504;2023-09-18T12:35:40;7.10;;;4.50;;
32946;SDS011;54465;51.230;22.504;2023-09-18T12:40:41;4.85;;;4.45;;
32946;SDS011;54465;51.230;22.504;2023-09-18T12:45:45;5.68;;;4.40;;
32946;SDS011;54465;51.230;22.504;2023-09-18T12:50:46;5.28;;;4.78;;
32946;SDS011;54465;51.230;22.504;2023-09-18T12:55:53;5.20;;;4.63;;
32946;SDS011;54465;51.230;22.504;2023-09-18T13:00:53;5.28;;;4.45;;
32946;SDS011;54465;51.230;22.504;2023-09-18T13:06:06;5.80;;;3.90;;
32946;SDS011;54465;51.230;22.504;2023-09-18T13:11:07;4.97;;;4.30;;
32946;SDS011;54465;51.230;22.504;2023-09-18T13:16:09;5.03;;;4.53;;
32946;SDS011;54465;51.230;22.504;2023-09-18T13:21:10;7.72;;;3.97;;
32946;SDS011;54465;51.230;22.504;2023-09-18T13:26:11;4.57;;;4.18;;
32946;SDS011;54465;51.230;22.504;2023-09-18T13:31:12;5.47;;;3.97;;
32946;SDS011;54465;51.230;22.504;2023-09-18T13:36:12;6.30;;;4.30;;
32946;SDS011;54465;51.230;22.504;2023-09-18T13:41:13;4.20;;;3.80;;
32946;SDS011;54465;51.230;22.504;2023-09-18T13:46:14;6.22;;;4.28;;
32946;SDS011;54465;51.230;22.504;2023-09-18T13:51:14;5.43;;;4.82;;
32946;SDS011;54465;51.230;22.504;2023-09-18T13:56:15;5.40;;;4.90;;
32946;SDS011;54465;51.230;22.504;2023-09-18T14:01:15;5.30;;;4.50;;
32946;SDS011;54465;51.230;22.504;2023-09-18T14:06:16;6.97;;;3.97;;
32946;SDS011;54465;51.230;22.504;2023-09-18T14:11:16;5.20;;;4.20;;
32946;SDS011;54465;51.230;22.504;2023-09-18T14:16:18;7.82;;;4.22;;
32946;SDS011;54465;51.230;22.504;2023-09-18T14:21:18;5.50;;;4.55;;
32946;SDS011;54465;51.230;22.504;2023-09-18T14:26:19;4.70;;;3.90;;
32946;SDS011;54465;51.230;22.504;2023-09-18T14:31:19;6.00;;;4.43;;
32946;SDS011;54465;51.230;22.504;2023-09-18T14:36:20;4.63;;;4.22;;
32946;SDS011;54465;51.230;22.504;2023-09-18T14:41:20;5.75;;;4.50;;
32946;SDS011;54465;51.230;22.504;2023-09-18T14:46:21;6.07;;;4.60;;
32946;SDS011;54465;51.230;22.504;2023-09-18T14:51:22;5.20;;;4.55;;
32946;SDS011;54465;51.230;22.504;2023-09-18T14:56:23;7.53;;;4.75;;
32946;SDS011;54465;51.230;22.504;2023-09-18T15:01:24;5.75;;;4.15;;
32946;SDS011;54465;51.230;22.504;2023-09-18T15:06:24;5.38;;;4.85;;
32946;SDS011;54465;51.230;22.504;2023-09-18T15:11:27;4.78;;;4.20;;
32946;SDS011;54465;51.230;22.504;2023-09-18T15:16:27;5.00;;;4.50;;
32946;SDS011;54465;51.230;22.504;2023-09-18T15:21:30;5.85;;;4.60;;
32946;SDS011;54465;51.230;22.504;2023-09-18T15:26:30;6.13;;;4.95;;
32946;SDS011;54465;51.230;22.504;2023-09-18T15:31:31;5.28;;;4.55;;
32946;SDS011;54465;51.230;22.504;2023-09-18T15:36:31;5.30;;;4.80;;
32946;SDS011;54465;51.230;22.504;2023-09-18T15:41:32;8.68;;;4.60;;
32946;SDS011;54465;51.230;22.504;2023-09-18T15:46:32;5.35;;;4.80;;
32946;SDS011;54465;51.230;22.504;2023-09-18T15:51:34;5.85;;;5.25;;
32946;SDS011;54465;51.230;22.504;2023-09-18T15:56:35;6.85;;;5.07;;
32946;SDS011;54465;51.230;22.504;2023-09-18T16:01:36;7.55;;;4.95;;
32946;SDS011;54465;51.230;22.504;2023-09-18T16:06:38;6.03;;;4.57;;
32946;SDS011;54465;51.230;22.504;2023-09-18T16:11:38;6.13;;;4.68;;
32946;SDS011;54465;51.230;22.504;2023-09-18T16:16:39;6.68;;;5.28;;
32946;SDS011;54465;51.230;22.504;2023-09-18T16:21:39;5.70;;;5.10;;
32946;SDS011;54465;51.230;22.504;2023-09-18T16:26:40;5.85;;;5.22;;
32946;SDS011;54465;51.230;22.504;2023-09-18T16:31:40;6.50;;;5.40;;
32946;SDS011;54465;51.230;22.504;2023-09-18T16:36:41;6.05;;;4.80;;
32946;SDS011;54465;51.230;22.504;2023-09-18T16:41:42;5.97;;;4.63;;
32946;SDS011;54465;51.230;22.504;2023-09-18T16:46:43;9.90;;;4.85;;
32946;SDS011;54465;51.230;22.504;2023-09-18T16:51:44;5.93;;;4.97;;
32946;SDS011;54465;51.230;22.504;2023-09-18T16:56:44;6.45;;;4.90;;
32946;SDS011;54465;51.230;22.504;2023-09-18T17:01:45;6.13;;;5.47;;
32946;SDS011;54465;51.230;22.504;2023-09-18T17:06:46;6.30;;;5.25;;
32946;SDS011;54465;51.230;22.504;2023-09-18T17:11:46;6.80;;;5.30;;
32946;SDS011;54465;51.230;22.504;2023-09-18T17:16:47;7.28;;;5.75;;
32946;SDS011;54465;51.230;22.504;2023-09-18T17:21:48;9.23;;;5.80;;
32946;SDS011;54465;51.230;22.504;2023-09-18T17:26:48;6.05;;;5.45;;
32946;SDS011;54465;51.230;22.504;2023-09-18T17:31:49;5.93;;;5.22;;
32946;SDS011;54465;51.230;22.504;2023-09-18T17:36:49;9.60;;;5.75;;
32946;SDS011;54465;51.230;22.504;2023-09-18T17:41:50;11.40;;;5.70;;
32946;SDS011;54465;51.230;22.504;2023-09-18T17:46:50;7.72;;;6.20;;
32946;SDS011;54465;51.230;22.504;2023-09-18T17:51:51;7.97;;;5.60;;
32946;SDS011;54465;51.230;22.504;2023-09-18T17:56:51;8.25;;;6.13;;
32946;SDS011;54465;51.230;22.504;2023-09-18T18:01:52;9.35;;;5.85;;
32946;SDS011;54465;51.230;22.504;2023-09-18T18:06:52;8.07;;;6.32;;
32946;SDS011;54465;51.230;22.504;2023-09-18T18:11:53;9.32;;;6.25;;
32946;SDS011;54465;51.230;22.504;2023-09-18T18:16:53;9.65;;;6.15;;
32946;SDS011;54465;51.230;22.504;2023-09-18T18:21:54;7.60;;;5.90;;
32946;SDS011;54465;51.230;22.504;2023-09-18T18:26:55;10.73;;;6.10;;
32946;SDS011;54465;51.230;22.504;2023-09-18T18:31:55;7.80;;;5.70;;
32946;SDS011;54465;51.230;22.504;2023-09-18T18:36:56;7.60;;;5.18;;
32946;SDS011;54465;51.230;22.504;2023-09-18T18:41:59;9.98;;;5.70;;
32946;SDS011;54465;51.230;22.504;2023-09-18T18:46:59;12.07;;;6.38;;
32946;SDS011;54465;51.230;22.504;2023-09-18T18:52:00;8.82;;;6.35;;
32946;SDS011;54465;51.230;22.504;2023-09-18T18:57:01;9.38;;;6.13;;
32946;SDS011;54465;51.230;22.504;2023-09-18T19:02:02;7.53;;;5.40;;
32946;SDS011;54465;51.230;22.504;2023-09-18T19:07:04;7.75;;;5.22;;
32946;SDS011;54465;51.230;22.504;2023-09-18T19:12:06;7.32;;;5.45;;
32946;SDS011;54465;51.230;22.504;2023-09-18T19:17:07;9.25;;;5.45;;
32946;SDS011;54465;51.230;22.504;2023-09-18T19:22:07;7.85;;;5.57;;
32946;SDS011;54465;51.230;22.504;2023-09-18T19:27:08;7.82;;;5.13;;
32946;SDS011;54465;51.230;22.504;2023-09-18T19:32:08;7.35;;;5.35;;
32946;SDS011;54465;51.230;22.504;2023-09-18T19:37:10;7.63;;;5.78;;
32946;SDS011;54465;51.230;22.504;2023-09-18T19:42:10;6.18;;;4.90;;
32946;SDS011;54465;51.230;22.504;2023-09-18T19:47:11;7.43;;;4.97;;
32946;SDS011;54465;51.230;22.504;2023-09-18T19:52:12;8.90;;;4.85;;
32946;SDS011;54465;51.230;22.504;2023-09-18T19:57:13;6.43;;;4.63;;
32946;SDS011;54465;51.230;22.504;2023-09-18T20:02:17;7.93;;;4.88;;
32946;SDS011;54465;51.230;22.504;2023-09-18T20:07:17;5.63;;;4.82;;
32946;SDS011;54465;51.230;22.504;2023-09-18T20:12:18;6.68;;;4.95;;
32946;SDS011;54465;51.230;22.504;2023-09-18T20:17:18;6.93;;;5.18;;
32946;SDS011;54465;51.230;22.504;2023-09-18T20:22:20;7.13;;;5.15;;
32946;SDS011;54465;51.230;22.504;2023-09-18T20:27:20;6.68;;;4.63;;
32946;SDS011;54465;51.230;22.504;2023-09-18T20:32:21;8.15;;;5.38;;
32946;SDS011;54465;51.230;22.504;2023-09-18T20:37:21;7.22;;;5.03;;
32946;SDS011;54465;51.230;22.504;2023-09-18T20:42:22;8.23;;;5.43;;
32946;SDS011;54465;51.230;22.504;2023-09-18T20:47:22;9.10;;;5.47;;
32946;SDS011;54465;51.230;22.504;2023-09-18T20:52:23;6.93;;;5.25;;
32946;SDS011;54465;51.230;22.504;2023-09-18T20:57:24;7.30;;;5.20;;
32946;SDS011;54465;51.230;22.504;2023-09-18T21:02:24;7.10;;;5.03;;
32946;SDS011;54465;51.230;22.504;2023-09-18T21:07:25;8.38;;;5.35;;
32946;SDS011;54465;51.230;22.504;2023-09-18T21:12:27;8.05;;;5.50;;
32946;SDS011;54465;51.230;22.504;2023-09-18T21:17:28;8.48;;;6.07;;
32946;SDS011;54465;51.230;22.504;2023-09-18T21:22:28;7.18;;;5.20;;
32946;SDS011;54465;51.230;22.504;2023-09-18T21:27:29;7.10;;;5.22;;
32946;SDS011;54465;51.230;22.504;2023-09-18T21:32:29;8.57;;;4.55;;
32946;SDS011;54465;51.230;22.504;2023-09-18T21:37:30;7.60;;;5.38;;
32946;SDS011;54465;51.230;22.504;2023-09-18T21:42:30;7.13;;;4.65;;
32946;SDS011;54465;51.230;22.504;2023-09-18T21:47:31;6.53;;;5.20;;
32946;SDS011;54465;51.230;22.504;2023-09-18T21:52:33;6.05;;;4.90;;
32946;SDS011;54465;51.230;22.504;2023-09-18T21:57:33;7.60;;;4.60;;
32946;SDS011;54465;51.230;22.504;2023-09-18T22:02:34;6.25;;;4.55;;
32946;SDS011;54465;51.230;22.504;2023-09-18T22:07:34;5.85;;;4.25;;
32946;SDS011;54465;51.230;22.504;2023-09-18T22:12:35;6.63;;;5.00;;
32946;SDS011;54465;51.230;22.504;2023-09-18T22:17:35;5.97;;;4.78;;
32946;SDS011;54465;51.230;22.504;2023-09-18T22:22:36;7.88;;;4.32;;
32946;SDS011;54465;51.230;22.504;2023-09-18T22:27:37;5.35;;;4.65;;
32946;SDS011;54465;51.230;22.504;2023-09-18T22:32:38;5.95;;;4.53;;
32946;SDS011;54465;51.230;22.504;2023-09-18T22:37:38;5.78;;;4.13;;
32946;SDS011;54465;51.230;22.504;2023-09-18T22:58:56;4.53;;;4.07;;
32946;SDS011;54465;51.230;22.504;2023-09-18T23:03:57;5.65;;;4.88;;
32946;SDS011;54465;51.230;22.504;2023-09-18T23:08:58;7.75;;;4.68;;
32946;SDS011;54465;51.230;22.504;2023-09-18T23:13:59;5.75;;;4.45;;
32946;SDS011;54465;51.230;22.504;2023-09-18T23:19:03;5.97;;;4.50;;
32946;SDS011;54465;51.230;22.504;2023-09-18T23:24:05;4.88;;;4.10;;
32946;SDS011;54465;51.230;22.504;2023-09-18T23:29:06;6.93;;;4.88;;
32946;SDS011;54465;51.230;22.504;2023-09-18T23:34:09;5.22;;;4.18;;
32946;SDS011;54465;51.230;22.504;2023-09-18T23:39:12;6.00;;;4.82;;
32946;SDS011;54465;51.230;22.504;2023-09-18T23:49:20;6.57;;;4.28;;
32946;SDS011;54465;51.230;22.504;2023-09-18T23:54:20;9.80;;;4.88;;
32946;SDS011;54465;51.230;22.504;2023-09-18T23:59:23;6.75;;;4.90;;
